sensor_id;sensor_type;location;lat;lon;timestamp;temperature;humidity
46562;DHT22;32289;42.688;23.330;2024-02-21T00:02:00;5.50;99.90
46562;DHT22;32289;42.688;23.330;2024-02-21T00:05:41;5.80;99.90
46562;DHT22;32289;42.688;23.330;2024-02-21T00:09:22;5.60;99.90
46562;DHT22;32289;42.688;23.330;2024-02-21T00:13:03;5.40;99.90
46562;DHT22;32289;42.688;23.330;2024-02-21T00:16:44;5.30;99.90
46562;DHT22;32289;42.688;23.330;2024-02-21T00:20:24;5.30;99.90
46562;DHT22;32289;42.688;23.330;2024-02-21T00:24:06;5.30;99.90
46562;DHT22;32289;42.688;23.330;2024-02-21T00:27:47;5.30;99.90
46562;DHT22;32289;42.688;23.330;2024-02-21T00:31:28;5.40;99.90
46562;DHT22;32289;42.688;23.330;2024-02-21T00:35:09;5.40;99.90
46562;DHT22;32289;42.688;23.330;2024-02-21T00:38:49;5.30;99.90
46562;DHT22;32289;42.688;23.330;2024-02-21T00:42:30;5.40;99.90
46562;DHT22;32289;42.688;23.330;2024-02-21T00:46:11;5.40;99.90
46562;DHT22;32289;42.688;23.330;2024-02-21T00:49:51;5.30;99.90
46562;DHT22;32289;42.688;23.330;2024-02-21T00:53:32;5.30;99.90
46562;DHT22;32289;42.688;23.330;2024-02-21T00:57:13;5.30;99.90
46562;DHT22;32289;42.688;23.330;2024-02-21T01:00:54;5.30;99.90
46562;DHT22;32289;42.688;23.330;2024-02-21T01:04:34;5.20;99.90
46562;DHT22;32289;42.688;23.330;2024-02-21T01:08:15;5.20;99.90
46562;DHT22;32289;42.688;23.330;2024-02-21T01:11:56;5.20;99.90
46562;DHT22;32289;42.688;23.330;2024-02-21T01:15:37;5.30;99.90
46562;DHT22;32289;42.688;23.330;2024-02-21T01:19:17;5.30;99.90
46562;DHT22;32289;42.688;23.330;2024-02-21T01:22:58;5.40;99.90
46562;DHT22;32289;42.688;23.330;2024-02-21T01:26:39;5.30;99.90
46562;DHT22;32289;42.688;23.330;2024-02-21T01:30:19;5.30;99.90
46562;DHT22;32289;42.688;23.330;2024-02-21T01:34:00;5.30;99.90
46562;DHT22;32289;42.688;23.330;2024-02-21T01:37:41;5.20;99.90
46562;DHT22;32289;42.688;23.330;2024-02-21T01:41:21;5.20;99.90
46562;DHT22;32289;42.688;23.330;2024-02-21T01:45:02;5.30;99.90
46562;DHT22;32289;42.688;23.330;2024-02-21T01:48:43;5.30;99.90
46562;DHT22;32289;42.688;23.330;2024-02-21T01:52:26;5.40;99.90
46562;DHT22;32289;42.688;23.330;2024-02-21T01:56:07;5.50;99.90
46562;DHT22;32289;42.688;23.330;2024-02-21T01:59:48;5.40;99.90
46562;DHT22;32289;42.688;23.330;2024-02-21T02:03:29;5.40;99.90
46562;DHT22;32289;42.688;23.330;2024-02-21T02:07:10;5.40;99.90
46562;DHT22;32289;42.688;23.330;2024-02-21T02:10:52;5.50;99.90
46562;DHT22;32289;42.688;23.330;2024-02-21T02:14:32;5.50;99.90
46562;DHT22;32289;42.688;23.330;2024-02-21T02:18:14;5.50;99.90
46562;DHT22;32289;42.688;23.330;2024-02-21T02:22:01;5.50;99.90
46562;DHT22;32289;42.688;23.330;2024-02-21T02:25:46;5.40;99.90
46562;DHT22;32289;42.688;23.330;2024-02-21T02:29:32;5.30;99.90
46562;DHT22;32289;42.688;23.330;2024-02-21T02:33:13;5.30;99.90
46562;DHT22;32289;42.688;23.330;2024-02-21T02:36:54;5.20;99.90
46562;DHT22;32289;42.688;23.330;2024-02-21T02:40:35;5.10;99.90
46562;DHT22;32289;42.688;23.330;2024-02-21T02:44:16;5.10;99.90
46562;DHT22;32289;42.688;23.330;2024-02-21T02:47:57;5.20;99.90
46562;DHT22;32289;42.688;23.330;2024-02-21T02:51:42;5.20;99.90
46562;DHT22;32289;42.688;23.330;2024-02-21T02:55:23;5.20;99.90
46562;DHT22;32289;42.688;23.330;2024-02-21T02:59:04;5.30;99.90
46562;DHT22;32289;42.688;23.330;2024-02-21T03:02:46;5.30;99.90
46562;DHT22;32289;42.688;23.330;2024-02-21T03:06:28;5.40;99.90
46562;DHT22;32289;42.688;23.330;2024-02-21T03:10:10;5.40;99.90
46562;DHT22;32289;42.688;23.330;2024-02-21T03:13:51;5.30;99.90
46562;DHT22;32289;42.688;23.330;2024-02-21T03:17:32;5.30;99.90
46562;DHT22;32289;42.688;23.330;2024-02-21T03:21:14;5.40;99.90
46562;DHT22;32289;42.688;23.330;2024-02-21T03:24:58;5.30;99.90
46562;DHT22;32289;42.688;23.330;2024-02-21T03:28:38;5.40;99.90
46562;DHT22;32289;42.688;23.330;2024-02-21T03:32:20;5.30;99.90
46562;DHT22;32289;42.688;23.330;2024-02-21T03:36:01;5.40;99.90
46562;DHT22;32289;42.688;23.330;2024-02-21T03:39:42;5.50;99.90
46562;DHT22;32289;42.688;23.330;2024-02-21T03:43:22;5.40;99.90
46562;DHT22;32289;42.688;23.330;2024-02-21T03:47:04;5.40;99.90
46562;DHT22;32289;42.688;23.330;2024-02-21T03:50:45;5.40;99.90
46562;DHT22;32289;42.688;23.330;2024-02-21T03:54:25;5.50;99.90
46562;DHT22;32289;42.688;23.330;2024-02-21T03:58:06;5.50;99.90
46562;DHT22;32289;42.688;23.330;2024-02-21T04:01:47;5.40;99.90
46562;DHT22;32289;42.688;23.330;2024-02-21T04:05:31;5.30;99.90
46562;DHT22;32289;42.688;23.330;2024-02-21T04:09:12;5.30;99.90
46562;DHT22;32289;42.688;23.330;2024-02-21T04:12:52;5.30;99.90
46562;DHT22;32289;42.688;23.330;2024-02-21T04:16:34;5.20;99.90
46562;DHT22;32289;42.688;23.330;2024-02-21T04:20:16;5.20;99.90
46562;DHT22;32289;42.688;23.330;2024-02-21T04:23:57;5.30;99.90
46562;DHT22;32289;42.688;23.330;2024-02-21T04:27:38;5.30;99.90
46562;DHT22;32289;42.688;23.330;2024-02-21T04:31:19;5.30;99.90
46562;DHT22;32289;42.688;23.330;2024-02-21T04:35:00;5.30;99.90
46562;DHT22;32289;42.688;23.330;2024-02-21T04:38:41;5.20;99.90
46562;DHT22;32289;42.688;23.330;2024-02-21T04:42:21;5.20;99.90
46562;DHT22;32289;42.688;23.330;2024-02-21T04:46:02;5.20;99.90
46562;DHT22;32289;42.688;23.330;2024-02-21T04:49:43;5.20;99.90
46562;DHT22;32289;42.688;23.330;2024-02-21T04:53:24;5.20;99.90
46562;DHT22;32289;42.688;23.330;2024-02-21T04:57:05;5.20;99.90
46562;DHT22;32289;42.688;23.330;2024-02-21T05:00:45;5.20;99.90
46562;DHT22;32289;42.688;23.330;2024-02-21T05:04:26;5.30;99.90
46562;DHT22;32289;42.688;23.330;2024-02-21T05:08:07;5.20;99.90
46562;DHT22;32289;42.688;23.330;2024-02-21T05:11:48;5.20;99.90
46562;DHT22;32289;42.688;23.330;2024-02-21T05:15:28;5.90;99.90
46562;DHT22;32289;42.688;23.330;2024-02-21T05:19:09;6.50;99.90
46562;DHT22;32289;42.688;23.330;2024-02-21T05:22:50;6.40;99.90
46562;DHT22;32289;42.688;23.330;2024-02-21T05:26:31;5.90;99.90
46562;DHT22;32289;42.688;23.330;2024-02-21T05:30:12;5.50;99.90
46562;DHT22;32289;42.688;23.330;2024-02-21T05:33:52;5.60;99.90
46562;DHT22;32289;42.688;23.330;2024-02-21T05:37:33;5.60;99.90
46562;DHT22;32289;42.688;23.330;2024-02-21T05:41:14;5.50;99.90
46562;DHT22;32289;42.688;23.330;2024-02-21T05:44:55;5.50;99.90
46562;DHT22;32289;42.688;23.330;2024-02-21T05:48:35;5.50;99.90
46562;DHT22;32289;42.688;23.330;2024-02-21T05:52:16;5.50;99.90
46562;DHT22;32289;42.688;23.330;2024-02-21T05:55:56;5.70;99.90
46562;DHT22;32289;42.688;23.330;2024-02-21T05:59:40;6.30;99.90
46562;DHT22;32289;42.688;23.330;2024-02-21T06:03:22;5.80;99.90
46562;DHT22;32289;42.688;23.330;2024-02-21T06:07:03;5.60;99.90
46562;DHT22;32289;42.688;23.330;2024-02-21T06:10:44;5.60;99.90
46562;DHT22;32289;42.688;23.330;2024-02-21T06:14:25;6.00;99.90
46562;DHT22;32289;42.688;23.330;2024-02-21T06:18:06;5.90;99.90
46562;DHT22;32289;42.688;23.330;2024-02-21T06:21:47;6.10;99.90
46562;DHT22;32289;42.688;23.330;2024-02-21T06:25:28;6.10;99.90
46562;DHT22;32289;42.688;23.330;2024-02-21T06:29:08;6.20;99.90
46562;DHT22;32289;42.688;23.330;2024-02-21T06:32:49;6.10;99.90
46562;DHT22;32289;42.688;23.330;2024-02-21T06:36:30;6.00;99.90
46562;DHT22;32289;42.688;23.330;2024-02-21T06:40:10;6.00;99.90
46562;DHT22;32289;42.688;23.330;2024-02-21T06:43:51;6.10;99.90
46562;DHT22;32289;42.688;23.330;2024-02-21T06:47:32;6.30;99.90
46562;DHT22;32289;42.688;23.330;2024-02-21T06:51:12;6.50;99.90
46562;DHT22;32289;42.688;23.330;2024-02-21T06:54:53;6.70;99.90
46562;DHT22;32289;42.688;23.330;2024-02-21T06:58:34;7.00;99.90
46562;DHT22;32289;42.688;23.330;2024-02-21T07:02:14;7.20;99.90
46562;DHT22;32289;42.688;23.330;2024-02-21T07:05:55;7.40;99.90
46562;DHT22;32289;42.688;23.330;2024-02-21T07:09:36;7.70;99.90
46562;DHT22;32289;42.688;23.330;2024-02-21T07:13:16;7.40;99.90
46562;DHT22;32289;42.688;23.330;2024-02-21T07:16:58;7.40;99.90
46562;DHT22;32289;42.688;23.330;2024-02-21T07:20:38;7.10;99.90
46562;DHT22;32289;42.688;23.330;2024-02-21T07:24:21;7.20;99.90
46562;DHT22;32289;42.688;23.330;2024-02-21T07:28:02;7.40;99.90
46562;DHT22;32289;42.688;23.330;2024-02-21T07:31:44;7.70;99.90
46562;DHT22;32289;42.688;23.330;2024-02-21T07:35:24;7.70;99.90
46562;DHT22;32289;42.688;23.330;2024-02-21T07:39:05;7.80;99.90
46562;DHT22;32289;42.688;23.330;2024-02-21T07:42:46;8.20;99.90
46562;DHT22;32289;42.688;23.330;2024-02-21T07:46:26;7.80;99.90
46562;DHT22;32289;42.688;23.330;2024-02-21T07:50:08;7.50;99.90
46562;DHT22;32289;42.688;23.330;2024-02-21T07:53:48;7.70;99.90
46562;DHT22;32289;42.688;23.330;2024-02-21T07:57:29;7.90;99.90
46562;DHT22;32289;42.688;23.330;2024-02-21T08:01:10;7.90;99.90
46562;DHT22;32289;42.688;23.330;2024-02-21T08:04:51;8.60;99.90
46562;DHT22;32289;42.688;23.330;2024-02-21T08:08:31;8.90;99.90
46562;DHT22;32289;42.688;23.330;2024-02-21T08:12:12;8.60;99.90
46562;DHT22;32289;42.688;23.330;2024-02-21T08:15:53;9.10;99.90
46562;DHT22;32289;42.688;23.330;2024-02-21T08:19:33;8.90;99.20
46562;DHT22;32289;42.688;23.330;2024-02-21T08:23:18;8.80;99.80
46562;DHT22;32289;42.688;23.330;2024-02-21T08:26:59;8.70;99.90
46562;DHT22;32289;42.688;23.330;2024-02-21T08:30:40;9.20;98.60
46562;DHT22;32289;42.688;23.330;2024-02-21T08:34:24;9.50;97.40
46562;DHT22;32289;42.688;23.330;2024-02-21T08:38:05;9.30;98.20
46562;DHT22;32289;42.688;23.330;2024-02-21T08:41:46;9.50;97.30
46562;DHT22;32289;42.688;23.330;2024-02-21T08:45:27;9.50;96.50
46562;DHT22;32289;42.688;23.330;2024-02-21T08:49:09;9.50;95.70
46562;DHT22;32289;42.688;23.330;2024-02-21T08:52:50;10.30;93.50
46562;DHT22;32289;42.688;23.330;2024-02-21T08:56:31;9.90;91.70
46562;DHT22;32289;42.688;23.330;2024-02-21T09:00:12;10.50;90.90
46562;DHT22;32289;42.688;23.330;2024-02-21T09:03:53;9.70;92.20
46562;DHT22;32289;42.688;23.330;2024-02-21T09:07:34;9.80;93.70
46562;DHT22;32289;42.688;23.330;2024-02-21T09:11:15;9.30;94.50
46562;DHT22;32289;42.688;23.330;2024-02-21T09:14:56;10.10;91.70
46562;DHT22;32289;42.688;23.330;2024-02-21T09:18:36;10.30;91.70
46562;DHT22;32289;42.688;23.330;2024-02-21T09:22:17;9.90;91.50
46562;DHT22;32289;42.688;23.330;2024-02-21T09:25:58;9.10;94.30
46562;DHT22;32289;42.688;23.330;2024-02-21T09:29:41;9.50;93.10
46562;DHT22;32289;42.688;23.330;2024-02-21T09:33:21;11.30;86.30
46562;DHT22;32289;42.688;23.330;2024-02-21T09:37:02;13.80;66.90
46562;DHT22;32289;42.688;23.330;2024-02-21T09:40:45;16.30;59.60
46562;DHT22;32289;42.688;23.330;2024-02-21T09:44:33;13.30;62.40
46562;DHT22;32289;42.688;23.330;2024-02-21T09:52:02;12.00;71.00
46562;DHT22;32289;42.688;23.330;2024-02-21T09:55:44;13.70;67.50
46562;DHT22;32289;42.688;23.330;2024-02-21T09:59:28;14.60;62.80
46562;DHT22;32289;42.688;23.330;2024-02-21T10:03:09;13.70;65.00
46562;DHT22;32289;42.688;23.330;2024-02-21T10:06:50;13.10;63.20
46562;DHT22;32289;42.688;23.330;2024-02-21T10:10:44;12.90;62.90
46562;DHT22;32289;42.688;23.330;2024-02-21T10:14:25;12.20;66.20
46562;DHT22;32289;42.688;23.330;2024-02-21T10:18:06;11.80;68.00
46562;DHT22;32289;42.688;23.330;2024-02-21T10:22:09;11.10;68.40
46562;DHT22;32289;42.688;23.330;2024-02-21T10:25:50;11.50;68.30
46562;DHT22;32289;42.688;23.330;2024-02-21T10:29:32;10.90;69.40
46562;DHT22;32289;42.688;23.330;2024-02-21T10:33:15;11.50;68.30
46562;DHT22;32289;42.688;23.330;2024-02-21T10:37:01;11.00;66.70
46562;DHT22;32289;42.688;23.330;2024-02-21T10:40:42;11.90;65.60
46562;DHT22;32289;42.688;23.330;2024-02-21T10:44:23;12.30;63.50
46562;DHT22;32289;42.688;23.330;2024-02-21T10:48:11;12.90;62.50
46562;DHT22;32289;42.688;23.330;2024-02-21T10:56:49;13.80;58.40
46562;DHT22;32289;42.688;23.330;2024-02-21T11:00:12;14.30;57.90
46562;DHT22;32289;42.688;23.330;2024-02-21T11:04:15;15.00;56.20
46562;DHT22;32289;42.688;23.330;2024-02-21T11:07:57;13.60;57.50
46562;DHT22;32289;42.688;23.330;2024-02-21T11:11:40;13.60;56.30
46562;DHT22;32289;42.688;23.330;2024-02-21T11:15:26;13.90;54.50
46562;DHT22;32289;42.688;23.330;2024-02-21T11:19:26;12.90;54.80
46562;DHT22;32289;42.688;23.330;2024-02-21T11:23:07;13.20;55.30
46562;DHT22;32289;42.688;23.330;2024-02-21T11:26:49;13.40;53.60
46562;DHT22;32289;42.688;23.330;2024-02-21T11:30:35;13.90;53.70
46562;DHT22;32289;42.688;23.330;2024-02-21T11:34:20;14.10;53.20
46562;DHT22;32289;42.688;23.330;2024-02-21T11:38:11;12.80;54.50
46562;DHT22;32289;42.688;23.330;2024-02-21T11:42:05;12.40;55.60
46562;DHT22;32289;42.688;23.330;2024-02-21T11:45:48;12.10;56.90
46562;DHT22;32289;42.688;23.330;2024-02-21T11:49:29;12.20;57.00
46562;DHT22;32289;42.688;23.330;2024-02-21T11:53:10;11.80;58.00
46562;DHT22;32289;42.688;23.330;2024-02-21T11:56:51;11.80;58.10
46562;DHT22;32289;42.688;23.330;2024-02-21T12:00:32;11.50;58.60
46562;DHT22;32289;42.688;23.330;2024-02-21T12:04:13;11.50;59.60
46562;DHT22;32289;42.688;23.330;2024-02-21T12:07:53;11.60;58.50
46562;DHT22;32289;42.688;23.330;2024-02-21T12:11:34;11.30;59.20
46562;DHT22;32289;42.688;23.330;2024-02-21T12:15:15;11.50;60.20
46562;DHT22;32289;42.688;23.330;2024-02-21T12:18:56;11.60;60.70
46562;DHT22;32289;42.688;23.330;2024-02-21T12:22:41;11.10;62.20
46562;DHT22;32289;42.688;23.330;2024-02-21T12:26:22;10.80;62.80
46562;DHT22;32289;42.688;23.330;2024-02-21T12:30:04;10.70;62.90
46562;DHT22;32289;42.688;23.330;2024-02-21T12:33:50;10.80;63.60
46562;DHT22;32289;42.688;23.330;2024-02-21T12:37:32;10.70;62.00
46562;DHT22;32289;42.688;23.330;2024-02-21T12:41:13;10.60;62.30
46562;DHT22;32289;42.688;23.330;2024-02-21T12:44:54;10.70;62.20
46562;DHT22;32289;42.688;23.330;2024-02-21T12:48:34;10.70;62.10
46562;DHT22;32289;42.688;23.330;2024-02-21T12:52:15;10.70;63.00
46562;DHT22;32289;42.688;23.330;2024-02-21T12:55:56;10.70;64.40
46562;DHT22;32289;42.688;23.330;2024-02-21T12:59:37;10.40;66.60
46562;DHT22;32289;42.688;23.330;2024-02-21T13:03:18;10.10;71.50
46562;DHT22;32289;42.688;23.330;2024-02-21T13:06:59;10.10;73.30
46562;DHT22;32289;42.688;23.330;2024-02-21T13:10:41;10.00;74.60
46562;DHT22;32289;42.688;23.330;2024-02-21T13:14:21;10.20;73.30
46562;DHT22;32289;42.688;23.330;2024-02-21T13:18:03;10.10;72.10
46562;DHT22;32289;42.688;23.330;2024-02-21T13:21:44;10.00;74.30
46562;DHT22;32289;42.688;23.330;2024-02-21T13:25:25;10.20;77.10
46562;DHT22;32289;42.688;23.330;2024-02-21T13:29:06;10.30;77.40
46562;DHT22;32289;42.688;23.330;2024-02-21T13:32:46;10.10;75.80
46562;DHT22;32289;42.688;23.330;2024-02-21T13:36:27;10.10;75.00
46562;DHT22;32289;42.688;23.330;2024-02-21T13:40:08;9.80;77.40
46562;DHT22;32289;42.688;23.330;2024-02-21T13:43:54;9.90;76.00
46562;DHT22;32289;42.688;23.330;2024-02-21T13:47:35;9.90;74.60
46562;DHT22;32289;42.688;23.330;2024-02-21T13:51:19;9.80;76.40
46562;DHT22;32289;42.688;23.330;2024-02-21T13:55:00;9.90;76.00
46562;DHT22;32289;42.688;23.330;2024-02-21T13:58:41;9.70;77.10
46562;DHT22;32289;42.688;23.330;2024-02-21T14:02:21;9.70;78.00
46562;DHT22;32289;42.688;23.330;2024-02-21T14:06:02;10.00;79.20
46562;DHT22;32289;42.688;23.330;2024-02-21T14:09:44;9.90;79.80
46562;DHT22;32289;42.688;23.330;2024-02-21T14:13:25;9.80;80.40
46562;DHT22;32289;42.688;23.330;2024-02-21T14:17:05;10.00;80.30
46562;DHT22;32289;42.688;23.330;2024-02-21T14:20:46;10.00;78.40
46562;DHT22;32289;42.688;23.330;2024-02-21T14:24:27;10.10;78.70
46562;DHT22;32289;42.688;23.330;2024-02-21T14:28:08;9.90;78.70
46562;DHT22;32289;42.688;23.330;2024-02-21T14:31:51;10.00;79.50
46562;DHT22;32289;42.688;23.330;2024-02-21T14:35:32;9.70;78.40
46562;DHT22;32289;42.688;23.330;2024-02-21T14:39:14;9.60;78.70
46562;DHT22;32289;42.688;23.330;2024-02-21T14:42:55;9.50;81.30
46562;DHT22;32289;42.688;23.330;2024-02-21T14:46:37;9.60;81.90
46562;DHT22;32289;42.688;23.330;2024-02-21T14:50:18;9.60;82.50
46562;DHT22;32289;42.688;23.330;2024-02-21T14:53:59;9.40;85.30
46562;DHT22;32289;42.688;23.330;2024-02-21T14:57:40;9.40;87.90
46562;DHT22;32289;42.688;23.330;2024-02-21T15:01:23;9.30;89.70
46562;DHT22;32289;42.688;23.330;2024-02-21T15:05:03;9.20;89.40
46562;DHT22;32289;42.688;23.330;2024-02-21T15:08:45;9.20;90.40
46562;DHT22;32289;42.688;23.330;2024-02-21T15:12:26;8.80;92.10
46562;DHT22;32289;42.688;23.330;2024-02-21T15:16:06;9.10;91.80
46562;DHT22;32289;42.688;23.330;2024-02-21T15:19:47;9.00;92.40
46562;DHT22;32289;42.688;23.330;2024-02-21T15:23:28;9.00;92.70
46562;DHT22;32289;42.688;23.330;2024-02-21T15:27:09;9.00;92.00
46562;DHT22;32289;42.688;23.330;2024-02-21T15:30:50;8.80;92.50
46562;DHT22;32289;42.688;23.330;2024-02-21T15:34:30;8.70;93.10
46562;DHT22;32289;42.688;23.330;2024-02-21T15:38:11;8.80;93.40
46562;DHT22;32289;42.688;23.330;2024-02-21T15:41:52;8.70;93.90
46562;DHT22;32289;42.688;23.330;2024-02-21T15:45:33;8.70;94.50
46562;DHT22;32289;42.688;23.330;2024-02-21T15:49:14;8.40;96.00
46562;DHT22;32289;42.688;23.330;2024-02-21T15:52:54;8.50;96.90
46562;DHT22;32289;42.688;23.330;2024-02-21T15:56:35;8.50;97.40
46562;DHT22;32289;42.688;23.330;2024-02-21T16:00:16;8.40;97.80
46562;DHT22;32289;42.688;23.330;2024-02-21T16:03:57;8.40;98.20
46562;DHT22;32289;42.688;23.330;2024-02-21T16:07:39;8.20;97.50
46562;DHT22;32289;42.688;23.330;2024-02-21T16:11:19;8.40;97.60
46562;DHT22;32289;42.688;23.330;2024-02-21T16:15:00;8.30;98.10
46562;DHT22;32289;42.688;23.330;2024-02-21T16:18:41;8.30;97.30
46562;DHT22;32289;42.688;23.330;2024-02-21T16:22:22;8.30;98.00
46562;DHT22;32289;42.688;23.330;2024-02-21T16:26:03;8.40;97.90
46562;DHT22;32289;42.688;23.330;2024-02-21T16:29:43;8.30;97.40
46562;DHT22;32289;42.688;23.330;2024-02-21T16:33:24;8.40;97.40
46562;DHT22;32289;42.688;23.330;2024-02-21T16:37:06;8.30;98.00
46562;DHT22;32289;42.688;23.330;2024-02-21T16:40:46;8.20;97.90
46562;DHT22;32289;42.688;23.330;2024-02-21T16:44:29;8.30;98.00
46562;DHT22;32289;42.688;23.330;2024-02-21T16:48:11;8.10;98.30
46562;DHT22;32289;42.688;23.330;2024-02-21T16:51:52;8.00;98.50
46562;DHT22;32289;42.688;23.330;2024-02-21T16:55:33;8.00;99.30
46562;DHT22;32289;42.688;23.330;2024-02-21T16:59:14;8.20;99.10
46562;DHT22;32289;42.688;23.330;2024-02-21T17:02:55;8.00;99.40
46562;DHT22;32289;42.688;23.330;2024-02-21T17:06:35;8.00;99.60
46562;DHT22;32289;42.688;23.330;2024-02-21T17:10:16;8.00;99.90
46562;DHT22;32289;42.688;23.330;2024-02-21T17:13:57;8.00;99.90
46562;DHT22;32289;42.688;23.330;2024-02-21T17:17:38;8.10;99.90
46562;DHT22;32289;42.688;23.330;2024-02-21T17:21:19;7.90;99.90
46562;DHT22;32289;42.688;23.330;2024-02-21T17:24:59;7.90;99.90
46562;DHT22;32289;42.688;23.330;2024-02-21T17:28:40;7.90;99.90
46562;DHT22;32289;42.688;23.330;2024-02-21T17:32:20;7.80;99.90
46562;DHT22;32289;42.688;23.330;2024-02-21T17:36:01;7.60;99.90
46562;DHT22;32289;42.688;23.330;2024-02-21T17:39:42;7.60;99.90
46562;DHT22;32289;42.688;23.330;2024-02-21T17:43:23;7.50;99.90
46562;DHT22;32289;42.688;23.330;2024-02-21T17:47:04;7.50;99.90
46562;DHT22;32289;42.688;23.330;2024-02-21T17:50:45;7.90;99.90
46562;DHT22;32289;42.688;23.330;2024-02-21T17:54:26;7.50;99.90
46562;DHT22;32289;42.688;23.330;2024-02-21T17:58:07;7.40;99.90
46562;DHT22;32289;42.688;23.330;2024-02-21T18:01:47;7.30;99.90
46562;DHT22;32289;42.688;23.330;2024-02-21T18:05:28;7.30;99.90
46562;DHT22;32289;42.688;23.330;2024-02-21T18:09:11;7.00;99.90
46562;DHT22;32289;42.688;23.330;2024-02-21T18:12:52;6.90;99.90
46562;DHT22;32289;42.688;23.330;2024-02-21T18:16:33;6.60;99.90
46562;DHT22;32289;42.688;23.330;2024-02-21T18:20:14;6.60;99.90
46562;DHT22;32289;42.688;23.330;2024-02-21T18:23:55;6.60;99.90
46562;DHT22;32289;42.688;23.330;2024-02-21T18:27:36;6.40;99.90
46562;DHT22;32289;42.688;23.330;2024-02-21T18:31:16;6.40;99.90
46562;DHT22;32289;42.688;23.330;2024-02-21T18:34:58;6.40;99.90
46562;DHT22;32289;42.688;23.330;2024-02-21T18:38:39;6.20;99.90
46562;DHT22;32289;42.688;23.330;2024-02-21T18:42:19;6.10;99.90
46562;DHT22;32289;42.688;23.330;2024-02-21T18:46:00;6.10;99.90
46562;DHT22;32289;42.688;23.330;2024-02-21T18:49:41;6.20;99.90
46562;DHT22;32289;42.688;23.330;2024-02-21T18:53:24;6.20;99.90
46562;DHT22;32289;42.688;23.330;2024-02-21T18:57:05;6.10;99.90
46562;DHT22;32289;42.688;23.330;2024-02-21T19:00:45;6.10;99.90
46562;DHT22;32289;42.688;23.330;2024-02-21T19:04:26;6.10;99.90
46562;DHT22;32289;42.688;23.330;2024-02-21T19:08:07;6.20;99.90
46562;DHT22;32289;42.688;23.330;2024-02-21T19:11:48;6.30;99.90
46562;DHT22;32289;42.688;23.330;2024-02-21T19:15:28;6.10;99.90
46562;DHT22;32289;42.688;23.330;2024-02-21T19:19:09;6.10;99.90
46562;DHT22;32289;42.688;23.330;2024-02-21T19:22:50;6.00;99.90
46562;DHT22;32289;42.688;23.330;2024-02-21T19:26:31;6.00;99.90
46562;DHT22;32289;42.688;23.330;2024-02-21T19:30:11;5.90;99.90
46562;DHT22;32289;42.688;23.330;2024-02-21T19:33:52;6.00;99.90
46562;DHT22;32289;42.688;23.330;2024-02-21T19:37:34;5.90;99.90
46562;DHT22;32289;42.688;23.330;2024-02-21T19:41:17;5.90;99.90
46562;DHT22;32289;42.688;23.330;2024-02-21T19:44:59;5.90;99.90
46562;DHT22;32289;42.688;23.330;2024-02-21T19:48:40;6.00;99.90
46562;DHT22;32289;42.688;23.330;2024-02-21T19:52:21;6.00;99.90
46562;DHT22;32289;42.688;23.330;2024-02-21T19:56:02;5.90;99.90
46562;DHT22;32289;42.688;23.330;2024-02-21T19:59:43;5.90;99.90
46562;DHT22;32289;42.688;23.330;2024-02-21T20:03:23;5.90;99.90
46562;DHT22;32289;42.688;23.330;2024-02-21T20:07:07;5.90;99.90
46562;DHT22;32289;42.688;23.330;2024-02-21T20:10:47;5.70;99.90
46562;DHT22;32289;42.688;23.330;2024-02-21T20:14:29;5.80;99.90
46562;DHT22;32289;42.688;23.330;2024-02-21T20:18:10;5.90;99.90
46562;DHT22;32289;42.688;23.330;2024-02-21T20:21:52;6.00;99.90
46562;DHT22;32289;42.688;23.330;2024-02-21T20:25:33;6.00;99.90
46562;DHT22;32289;42.688;23.330;2024-02-21T20:29:13;5.90;99.90
46562;DHT22;32289;42.688;23.330;2024-02-21T20:32:56;5.80;99.90
46562;DHT22;32289;42.688;23.330;2024-02-21T20:36:36;5.60;99.90
46562;DHT22;32289;42.688;23.330;2024-02-21T20:40:17;5.70;99.90
46562;DHT22;32289;42.688;23.330;2024-02-21T20:43:58;5.80;99.90
46562;DHT22;32289;42.688;23.330;2024-02-21T20:47:39;5.50;99.90
46562;DHT22;32289;42.688;23.330;2024-02-21T20:51:20;5.60;99.90
46562;DHT22;32289;42.688;23.330;2024-02-21T20:55:01;5.80;99.90
46562;DHT22;32289;42.688;23.330;2024-02-21T20:58:42;5.60;99.90
46562;DHT22;32289;42.688;23.330;2024-02-21T21:02:23;5.50;99.90
46562;DHT22;32289;42.688;23.330;2024-02-21T21:06:04;5.70;99.90
46562;DHT22;32289;42.688;23.330;2024-02-21T21:09:45;5.70;99.90
46562;DHT22;32289;42.688;23.330;2024-02-21T21:13:25;5.70;99.90
46562;DHT22;32289;42.688;23.330;2024-02-21T21:17:07;5.80;99.90
46562;DHT22;32289;42.688;23.330;2024-02-21T21:20:47;5.60;99.90
46562;DHT22;32289;42.688;23.330;2024-02-21T21:24:28;5.70;99.90
46562;DHT22;32289;42.688;23.330;2024-02-21T21:28:09;5.70;99.90
46562;DHT22;32289;42.688;23.330;2024-02-21T21:31:50;5.60;99.90
46562;DHT22;32289;42.688;23.330;2024-02-21T21:35:31;5.70;99.90
46562;DHT22;32289;42.688;23.330;2024-02-21T21:39:11;5.60;99.90
46562;DHT22;32289;42.688;23.330;2024-02-21T21:42:57;5.60;99.90
46562;DHT22;32289;42.688;23.330;2024-02-21T21:46:39;5.70;99.90
46562;DHT22;32289;42.688;23.330;2024-02-21T21:50:22;5.50;99.90
46562;DHT22;32289;42.688;23.330;2024-02-21T21:54:03;5.50;99.90
46562;DHT22;32289;42.688;23.330;2024-02-21T21:57:46;5.40;99.90
46562;DHT22;32289;42.688;23.330;2024-02-21T22:01:27;5.30;99.90
46562;DHT22;32289;42.688;23.330;2024-02-21T22:05:11;5.30;99.90
46562;DHT22;32289;42.688;23.330;2024-02-21T22:08:52;5.30;99.90
46562;DHT22;32289;42.688;23.330;2024-02-21T22:12:33;5.10;99.90
46562;DHT22;32289;42.688;23.330;2024-02-21T22:16:14;5.10;99.90
46562;DHT22;32289;42.688;23.330;2024-02-21T22:19:56;5.10;99.90
46562;DHT22;32289;42.688;23.330;2024-02-21T22:23:36;5.00;99.90
46562;DHT22;32289;42.688;23.330;2024-02-21T22:27:17;4.80;99.90
46562;DHT22;32289;42.688;23.330;2024-02-21T22:30:59;4.90;99.90
46562;DHT22;32289;42.688;23.330;2024-02-21T22:34:39;4.80;99.90
46562;DHT22;32289;42.688;23.330;2024-02-21T22:38:20;4.70;99.90
46562;DHT22;32289;42.688;23.330;2024-02-21T22:42:01;4.80;99.90
46562;DHT22;32289;42.688;23.330;2024-02-21T22:45:41;4.80;99.90
46562;DHT22;32289;42.688;23.330;2024-02-21T22:49:22;4.60;99.90
46562;DHT22;32289;42.688;23.330;2024-02-21T22:53:03;4.50;99.90
46562;DHT22;32289;42.688;23.330;2024-02-21T22:56:44;4.40;99.90
46562;DHT22;32289;42.688;23.330;2024-02-21T23:00:24;4.30;99.90
46562;DHT22;32289;42.688;23.330;2024-02-21T23:04:05;4.10;99.90
46562;DHT22;32289;42.688;23.330;2024-02-21T23:07:46;4.20;99.90
46562;DHT22;32289;42.688;23.330;2024-02-21T23:11:30;4.10;99.90
46562;DHT22;32289;42.688;23.330;2024-02-21T23:15:11;4.10;99.90
46562;DHT22;32289;42.688;23.330;2024-02-21T23:18:52;4.20;99.90
46562;DHT22;32289;42.688;23.330;2024-02-21T23:22:33;4.00;99.90